sensor_id;sensor_type;location;lat;lon;timestamp;temperature;humidity
6903;DHT22;20232;49.408;8.702;2023-01-15T05:01:37;8.00;99.90
6903;DHT22;20232;49.408;8.702;2023-01-15T05:04:03;7.90;99.90
6903;DHT22;20232;49.408;8.702;2023-01-15T05:06:29;7.90;99.90
6903;DHT22;20232;49.408;8.702;2023-01-15T05:08:56;7.90;99.90
6903;DHT22;20232;49.408;8.702;2023-01-15T05:11:22;7.90;99.90
6903;DHT22;20232;49.408;8.702;2023-01-15T05:13:48;7.90;99.90
6903;DHT22;20232;49.408;8.702;2023-01-15T05:16:18;7.90;99.90
6903;DHT22;20232;49.408;8.702;2023-01-15T05:18:44;7.80;99.90
6903;DHT22;20232;49.408;8.702;2023-01-15T05:21:25;7.80;99.90
6903;DHT22;20232;49.408;8.702;2023-01-15T05:23:53;7.80;99.90
6903;DHT22;20232;49.408;8.702;2023-01-15T05:26:19;7.80;99.90
6903;DHT22;20232;49.408;8.702;2023-01-15T05:28:46;7.80;99.90
6903;DHT22;20232;49.408;8.702;2023-01-15T05:31:14;7.80;99.90
6903;DHT22;20232;49.408;8.702;2023-01-15T05:33:41;7.70;99.90
6903;DHT22;20232;49.408;8.702;2023-01-15T05:36:09;7.70;99.90
6903;DHT22;20232;49.408;8.702;2023-01-15T05:38:36;7.70;99.90
6903;DHT22;20232;49.408;8.702;2023-01-15T05:41:03;7.70;99.90
6903;DHT22;20232;49.408;8.702;2023-01-15T05:43:49;7.60;99.90
6903;DHT22;20232;49.408;8.702;2023-01-15T05:46:14;7.70;99.90
6903;DHT22;20232;49.408;8.702;2023-01-15T05:48:40;7.70;99.90
6903;DHT22;20232;49.408;8.702;2023-01-15T05:51:05;7.70;99.90
6903;DHT22;20232;49.408;8.702;2023-01-15T05:53:31;7.60;99.90
6903;DHT22;20232;49.408;8.702;2023-01-15T05:56:00;7.60;99.90
6903;DHT22;20232;49.408;8.702;2023-01-15T05:58:26;7.70;99.90
6903;DHT22;20232;49.408;8.702;2023-01-15T06:00:51;7.60;99.90
6903;DHT22;20232;49.408;8.702;2023-01-15T06:03:17;7.60;99.90
6903;DHT22;20232;49.408;8.702;2023-01-15T06:05:42;7.60;99.90
6903;DHT22;20232;49.408;8.702;2023-01-15T06:08:08;7.60;99.90
6903;DHT22;20232;49.408;8.702;2023-01-15T06:10:33;7.60;99.90
6903;DHT22;20232;49.408;8.702;2023-01-15T06:12:59;7.60;99.90
6903;DHT22;20232;49.408;8.702;2023-01-15T06:15:24;7.60;99.90
6903;DHT22;20232;49.408;8.702;2023-01-15T06:17:50;7.60;99.90
6903;DHT22;20232;49.408;8.702;2023-01-15T06:20:15;7.60;99.90
6903;DHT22;20232;49.408;8.702;2023-01-15T06:22:41;7.60;99.90
6903;DHT22;20232;49.408;8.702;2023-01-15T06:29:59;7.50;99.90
6903;DHT22;20232;49.408;8.702;2023-01-15T06:32:25;7.50;99.90
6903;DHT22;20232;49.408;8.702;2023-01-15T06:34:50;7.40;99.90
6903;DHT22;20232;49.408;8.702;2023-01-15T06:44:53;7.40;99.90
6903;DHT22;20232;49.408;8.702;2023-01-15T06:47:36;7.30;99.90
6903;DHT22;20232;49.408;8.702;2023-01-15T06:50:02;7.20;99.90
6903;DHT22;20232;49.408;8.702;2023-01-15T06:52:28;7.20;99.90
6903;DHT22;20232;49.408;8.702;2023-01-15T06:54:54;7.20;99.90
6903;DHT22;20232;49.408;8.702;2023-01-15T06:57:20;7.20;99.90
6903;DHT22;20232;49.408;8.702;2023-01-15T06:59:47;7.10;99.90
6903;DHT22;20232;49.408;8.702;2023-01-15T07:02:13;7.10;99.90
6903;DHT22;20232;49.408;8.702;2023-01-15T07:04:38;7.10;99.90
6903;DHT22;20232;49.408;8.702;2023-01-15T07:07:04;7.10;99.90
6903;DHT22;20232;49.408;8.702;2023-01-15T07:09:30;7.10;99.90
6903;DHT22;20232;49.408;8.702;2023-01-15T07:11:55;7.10;99.90
6903;DHT22;20232;49.408;8.702;2023-01-15T07:14:25;7.10;99.90
6903;DHT22;20232;49.408;8.702;2023-01-15T07:16:52;7.10;99.90
6903;DHT22;20232;49.408;8.702;2023-01-15T07:19:18;7.10;99.90
6903;DHT22;20232;49.408;8.702;2023-01-15T07:21:45;7.00;99.90
6903;DHT22;20232;49.408;8.702;2023-01-15T07:24:11;7.00;99.90
6903;DHT22;20232;49.408;8.702;2023-01-15T07:26:38;6.90;99.90
6903;DHT22;20232;49.408;8.702;2023-01-15T07:46:43;7.00;99.90
6903;DHT22;20232;49.408;8.702;2023-01-15T08:51:43;6.80;99.90
6903;DHT22;20232;49.408;8.702;2023-01-15T08:54:10;6.30;99.90
6903;DHT22;20232;49.408;8.702;2023-01-15T08:56:36;6.30;99.90
6903;DHT22;20232;49.408;8.702;2023-01-15T08:59:05;6.30;99.90
6903;DHT22;20232;49.408;8.702;2023-01-15T09:01:33;6.30;99.90
6903;DHT22;20232;49.408;8.702;2023-01-15T09:03:58;6.20;99.90
6903;DHT22;20232;49.408;8.702;2023-01-15T09:06:24;6.20;99.90
6903;DHT22;20232;49.408;8.702;2023-01-15T09:08:50;6.20;99.90
6903;DHT22;20232;49.408;8.702;2023-01-15T09:11:16;6.20;99.90
6903;DHT22;20232;49.408;8.702;2023-01-15T09:13:41;6.30;99.90
6903;DHT22;20232;49.408;8.702;2023-01-15T09:16:07;6.30;99.90
6903;DHT22;20232;49.408;8.702;2023-01-15T09:18:36;6.20;99.90
6903;DHT22;20232;49.408;8.702;2023-01-15T09:21:02;6.20;99.90
6903;DHT22;20232;49.408;8.702;2023-01-15T09:23:28;6.20;99.90
6903;DHT22;20232;49.408;8.702;2023-01-15T09:25:58;6.20;99.90
6903;DHT22;20232;49.408;8.702;2023-01-15T09:28:24;6.20;99.90
6903;DHT22;20232;49.408;8.702;2023-01-15T09:30:50;6.20;99.90
6903;DHT22;20232;49.408;8.702;2023-01-15T09:33:16;6.20;99.90
6903;DHT22;20232;49.408;8.702;2023-01-15T09:35:42;6.30;99.90
6903;DHT22;20232;49.408;8.702;2023-01-15T09:38:12;6.30;99.90
6903;DHT22;20232;49.408;8.702;2023-01-15T09:43:42;6.30;99.90
6903;DHT22;20232;49.408;8.702;2023-01-15T09:46:19;6.30;99.90
6903;DHT22;20232;49.408;8.702;2023-01-15T09:49:10;6.30;99.90
6903;DHT22;20232;49.408;8.702;2023-01-15T09:52:03;6.30;99.90
6903;DHT22;20232;49.408;8.702;2023-01-15T09:54:46;6.30;99.90
6903;DHT22;20232;49.408;8.702;2023-01-15T09:57:14;6.30;99.90
6903;DHT22;20232;49.408;8.702;2023-01-15T09:59:43;6.40;99.90
6903;DHT22;20232;49.408;8.702;2023-01-15T10:02:33;6.40;99.90
6903;DHT22;20232;49.408;8.702;2023-01-15T10:05:29;6.40;99.90
6903;DHT22;20232;49.408;8.702;2023-01-15T10:10:44;6.50;99.90
6903;DHT22;20232;49.408;8.702;2023-01-15T10:13:27;6.50;99.90
6903;DHT22;20232;49.408;8.702;2023-01-15T10:15:55;6.60;99.90
6903;DHT22;20232;49.408;8.702;2023-01-15T10:18:25;6.60;99.90
6903;DHT22;20232;49.408;8.702;2023-01-15T10:26:40;6.60;99.90
6903;DHT22;20232;49.408;8.702;2023-01-15T10:29:31;6.60;99.90
6903;DHT22;20232;49.408;8.702;2023-01-15T10:34:56;6.60;99.90
6903;DHT22;20232;49.408;8.702;2023-01-15T10:37:41;6.60;99.90
6903;DHT22;20232;49.408;8.702;2023-01-15T10:40:38;6.60;99.90
6903;DHT22;20232;49.408;8.702;2023-01-15T10:43:24;6.60;99.90
6903;DHT22;20232;49.408;8.702;2023-01-15T10:45:57;6.60;99.90
6903;DHT22;20232;49.408;8.702;2023-01-15T10:51:19;6.60;99.90
6903;DHT22;20232;49.408;8.702;2023-01-15T10:56:39;6.60;99.90
6903;DHT22;20232;49.408;8.702;2023-01-15T10:59:45;6.60;99.90
6903;DHT22;20232;49.408;8.702;2023-01-15T11:14:49;6.60;99.90
6903;DHT22;20232;49.408;8.702;2023-01-15T11:17:43;6.70;99.90
6903;DHT22;20232;49.408;8.702;2023-01-15T11:20:30;6.60;99.90
6903;DHT22;20232;49.408;8.702;2023-01-15T11:23:11;6.40;99.90
6903;DHT22;20232;49.408;8.702;2023-01-15T11:25:46;6.30;99.90
6903;DHT22;20232;49.408;8.702;2023-01-15T11:28:13;6.30;99.90
6903;DHT22;20232;49.408;8.702;2023-01-15T11:30:40;6.30;99.90
6903;DHT22;20232;49.408;8.702;2023-01-15T11:33:21;6.30;99.90
6903;DHT22;20232;49.408;8.702;2023-01-15T11:35:53;6.20;99.90
6903;DHT22;20232;49.408;8.702;2023-01-15T11:38:24;6.20;99.90
6903;DHT22;20232;49.408;8.702;2023-01-15T11:40:51;6.10;99.90
6903;DHT22;20232;49.408;8.702;2023-01-15T11:43:22;6.10;99.90
6903;DHT22;20232;49.408;8.702;2023-01-15T11:46:26;6.10;99.90
6903;DHT22;20232;49.408;8.702;2023-01-15T11:49:12;6.00;99.90
6903;DHT22;20232;49.408;8.702;2023-01-15T11:51:59;5.90;99.90
6903;DHT22;20232;49.408;8.702;2023-01-15T11:54:26;5.90;99.90
6903;DHT22;20232;49.408;8.702;2023-01-15T11:56:51;5.90;99.90
6903;DHT22;20232;49.408;8.702;2023-01-15T11:59:19;5.80;99.90
6903;DHT22;20232;49.408;8.702;2023-01-15T12:01:52;5.70;99.90
6903;DHT22;20232;49.408;8.702;2023-01-15T12:04:38;5.70;99.90
6903;DHT22;20232;49.408;8.702;2023-01-15T12:07:11;5.60;99.90
6903;DHT22;20232;49.408;8.702;2023-01-15T12:10:06;5.60;99.90
6903;DHT22;20232;49.408;8.702;2023-01-15T12:12:50;5.50;99.90
6903;DHT22;20232;49.408;8.702;2023-01-15T12:15:36;5.40;99.90
6903;DHT22;20232;49.408;8.702;2023-01-15T12:20:50;5.30;99.90
6903;DHT22;20232;49.408;8.702;2023-01-15T12:26:26;5.30;99.90
6903;DHT22;20232;49.408;8.702;2023-01-15T12:29:19;5.20;99.90
6903;DHT22;20232;49.408;8.702;2023-01-15T12:31:56;5.20;99.90
6903;DHT22;20232;49.408;8.702;2023-01-15T12:37:16;5.20;99.90
6903;DHT22;20232;49.408;8.702;2023-01-15T12:39:50;5.20;99.90
6903;DHT22;20232;49.408;8.702;2023-01-15T12:42:19;5.30;99.90
6903;DHT22;20232;49.408;8.702;2023-01-15T12:45:14;5.40;99.90
6903;DHT22;20232;49.408;8.702;2023-01-15T12:48:01;5.50;99.90
6903;DHT22;20232;49.408;8.702;2023-01-15T12:51:12;5.50;99.90
6903;DHT22;20232;49.408;8.702;2023-01-15T12:53:42;5.60;99.90
6903;DHT22;20232;49.408;8.702;2023-01-15T12:58:50;6.00;99.90
6903;DHT22;20232;49.408;8.702;2023-01-15T13:01:39;6.20;99.90
6903;DHT22;20232;49.408;8.702;2023-01-15T13:04:31;6.40;99.90
6903;DHT22;20232;49.408;8.702;2023-01-15T13:07:21;6.50;99.90
6903;DHT22;20232;49.408;8.702;2023-01-15T13:10:06;6.50;99.90
6903;DHT22;20232;49.408;8.702;2023-01-15T13:12:35;6.50;99.90
6903;DHT22;20232;49.408;8.702;2023-01-15T13:15:02;6.60;99.90
6903;DHT22;20232;49.408;8.702;2023-01-15T13:17:50;6.70;99.90
6903;DHT22;20232;49.408;8.702;2023-01-15T13:23:17;6.70;99.90
6903;DHT22;20232;49.408;8.702;2023-01-15T13:29:01;6.70;99.90
6903;DHT22;20232;49.408;8.702;2023-01-15T13:31:53;6.70;99.90
6903;DHT22;20232;49.408;8.702;2023-01-15T13:37:26;6.80;99.90
6903;DHT22;20232;49.408;8.702;2023-01-15T13:39:59;6.80;99.90
6903;DHT22;20232;49.408;8.702;2023-01-15T13:42:27;6.90;99.90
6903;DHT22;20232;49.408;8.702;2023-01-15T13:47:46;7.00;99.90
6903;DHT22;20232;49.408;8.702;2023-01-15T13:50:24;7.00;99.90
6903;DHT22;20232;49.408;8.702;2023-01-15T13:53:05;7.00;99.90
6903;DHT22;20232;49.408;8.702;2023-01-15T13:55:35;7.00;99.90
6903;DHT22;20232;49.408;8.702;2023-01-15T13:58:02;7.00;99.90
6903;DHT22;20232;49.408;8.702;2023-01-15T14:00:35;7.20;99.90
6903;DHT22;20232;49.408;8.702;2023-01-15T14:05:58;7.40;99.90
6903;DHT22;20232;49.408;8.702;2023-01-15T14:08:27;7.40;99.90
6903;DHT22;20232;49.408;8.702;2023-01-15T14:10:53;7.50;99.90
6903;DHT22;20232;49.408;8.702;2023-01-15T14:14:05;7.40;99.90
6903;DHT22;20232;49.408;8.702;2023-01-15T14:16:47;7.40;99.90
6903;DHT22;20232;49.408;8.702;2023-01-15T14:27:59;7.40;99.90
6903;DHT22;20232;49.408;8.702;2023-01-15T14:30:56;7.40;99.90
6903;DHT22;20232;49.408;8.702;2023-01-15T14:33:40;7.40;99.90
6903;DHT22;20232;49.408;8.702;2023-01-15T14:36:17;7.40;99.90
6903;DHT22;20232;49.408;8.702;2023-01-15T14:38:55;7.40;99.90
6903;DHT22;20232;49.408;8.702;2023-01-15T14:41:33;7.40;99.90
6903;DHT22;20232;49.408;8.702;2023-01-15T14:44:26;7.30;99.90
6903;DHT22;20232;49.408;8.702;2023-01-15T14:47:01;7.30;99.90
6903;DHT22;20232;49.408;8.702;2023-01-15T14:49:30;7.40;99.90
6903;DHT22;20232;49.408;8.702;2023-01-15T14:51:56;7.40;99.90
6903;DHT22;20232;49.408;8.702;2023-01-15T14:54:23;7.40;99.90
6903;DHT22;20232;49.408;8.702;2023-01-15T14:56:54;7.40;99.90
6903;DHT22;20232;49.408;8.702;2023-01-15T14:59:43;7.40;99.90
6903;DHT22;20232;49.408;8.702;2023-01-15T15:02:21;7.40;99.90
6903;DHT22;20232;49.408;8.702;2023-01-15T15:04:53;7.30;99.90
6903;DHT22;20232;49.408;8.702;2023-01-15T15:07:21;7.40;99.90
6903;DHT22;20232;49.408;8.702;2023-01-15T15:23:27;7.00;99.90
6903;DHT22;20232;49.408;8.702;2023-01-15T15:25:58;6.90;99.90
6903;DHT22;20232;49.408;8.702;2023-01-15T15:28:25;6.90;99.90
6903;DHT22;20232;49.408;8.702;2023-01-15T15:30:51;7.00;99.90
6903;DHT22;20232;49.408;8.702;2023-01-15T15:33:21;6.90;99.90
6903;DHT22;20232;49.408;8.702;2023-01-15T15:35:54;7.00;99.90
6903;DHT22;20232;49.408;8.702;2023-01-15T15:38:22;6.90;99.90
6903;DHT22;20232;49.408;8.702;2023-01-15T15:40:55;6.90;99.90
6903;DHT22;20232;49.408;8.702;2023-01-15T15:43:28;6.90;99.90
6903;DHT22;20232;49.408;8.702;2023-01-15T15:46:26;6.90;99.90
6903;DHT22;20232;49.408;8.702;2023-01-15T15:49:11;6.90;99.90
6903;DHT22;20232;49.408;8.702;2023-01-15T15:51:48;6.90;99.90
6903;DHT22;20232;49.408;8.702;2023-01-15T15:59:35;6.90;99.90
6903;DHT22;20232;49.408;8.702;2023-01-15T16:02:24;6.90;99.90
6903;DHT22;20232;49.408;8.702;2023-01-15T16:04:59;6.90;99.90
6903;DHT22;20232;49.408;8.702;2023-01-15T16:07:27;6.90;99.90
6903;DHT22;20232;49.408;8.702;2023-01-15T16:09:57;6.90;99.90
6903;DHT22;20232;49.408;8.702;2023-01-15T16:12:25;6.90;99.90
6903;DHT22;20232;49.408;8.702;2023-01-15T16:14:53;6.90;99.90
6903;DHT22;20232;49.408;8.702;2023-01-15T16:17:20;6.90;99.90
6903;DHT22;20232;49.408;8.702;2023-01-15T16:19:46;6.90;99.90
6903;DHT22;20232;49.408;8.702;2023-01-15T16:22:15;6.80;99.90
6903;DHT22;20232;49.408;8.702;2023-01-15T16:24:57;6.80;99.90
6903;DHT22;20232;49.408;8.702;2023-01-15T16:27:31;6.90;99.90
6903;DHT22;20232;49.408;8.702;2023-01-15T16:30:00;6.90;99.90
6903;DHT22;20232;49.408;8.702;2023-01-15T16:32:30;6.90;99.90
6903;DHT22;20232;49.408;8.702;2023-01-15T16:35:21;6.90;99.90
6903;DHT22;20232;49.408;8.702;2023-01-15T16:37:48;6.90;99.90
6903;DHT22;20232;49.408;8.702;2023-01-15T16:40:28;6.90;99.90
6903;DHT22;20232;49.408;8.702;2023-01-15T16:43:14;6.90;99.90
6903;DHT22;20232;49.408;8.702;2023-01-15T16:46:04;6.90;99.90
6903;DHT22;20232;49.408;8.702;2023-01-15T16:48:36;6.90;99.90
6903;DHT22;20232;49.408;8.702;2023-01-15T16:51:28;6.90;99.90
6903;DHT22;20232;49.408;8.702;2023-01-15T16:53:55;6.90;99.90
6903;DHT22;20232;49.408;8.702;2023-01-15T16:59:03;6.80;99.90
6903;DHT22;20232;49.408;8.702;2023-01-15T17:07:36;6.80;99.90
6903;DHT22;20232;49.408;8.702;2023-01-15T17:09:49;6.70;99.90
6903;DHT22;20232;49.408;8.702;2023-01-15T17:17:51;6.80;99.90
6903;DHT22;20232;49.408;8.702;2023-01-15T17:20:18;6.70;99.90
6903;DHT22;20232;49.408;8.702;2023-01-15T17:22:46;6.70;99.90
6903;DHT22;20232;49.408;8.702;2023-01-15T17:25:26;6.70;99.90
6903;DHT22;20232;49.408;8.702;2023-01-15T17:27:53;6.70;99.90
6903;DHT22;20232;49.408;8.702;2023-01-15T17:30:20;6.80;99.90
6903;DHT22;20232;49.408;8.702;2023-01-15T17:32:47;6.80;99.90
6903;DHT22;20232;49.408;8.702;2023-01-15T17:35:22;6.90;99.90
6903;DHT22;20232;49.408;8.702;2023-01-15T17:37:48;6.80;99.90
6903;DHT22;20232;49.408;8.702;2023-01-15T17:40:13;6.90;99.90
6903;DHT22;20232;49.408;8.702;2023-01-15T17:42:39;6.90;99.90
6903;DHT22;20232;49.408;8.702;2023-01-15T17:47:44;6.90;99.90
6903;DHT22;20232;49.408;8.702;2023-01-15T17:50:10;6.90;99.90
6903;DHT22;20232;49.408;8.702;2023-01-15T17:52:36;6.80;99.90
6903;DHT22;20232;49.408;8.702;2023-01-15T17:55:02;6.80;99.90
6903;DHT22;20232;49.408;8.702;2023-01-15T17:57:46;6.70;99.90
6903;DHT22;20232;49.408;8.702;2023-01-15T18:00:30;6.70;99.90
6903;DHT22;20232;49.408;8.702;2023-01-15T18:03:19;6.60;99.90
6903;DHT22;20232;49.408;8.702;2023-01-15T18:06:05;6.60;99.90
6903;DHT22;20232;49.408;8.702;2023-01-15T18:08:32;6.60;99.90
6903;DHT22;20232;49.408;8.702;2023-01-15T18:10:58;6.60;99.90
6903;DHT22;20232;49.408;8.702;2023-01-15T18:13:24;6.60;99.90
6903;DHT22;20232;49.408;8.702;2023-01-15T18:15:49;6.60;99.90
6903;DHT22;20232;49.408;8.702;2023-01-15T18:18:17;6.60;99.90
6903;DHT22;20232;49.408;8.702;2023-01-15T18:20:42;6.50;99.90
6903;DHT22;20232;49.408;8.702;2023-01-15T18:23:08;6.60;99.90
6903;DHT22;20232;49.408;8.702;2023-01-15T18:25:34;6.50;99.90
6903;DHT22;20232;49.408;8.702;2023-01-15T18:28:00;6.50;99.90
6903;DHT22;20232;49.408;8.702;2023-01-15T18:30:25;6.60;99.90
6903;DHT22;20232;49.408;8.702;2023-01-15T18:32:51;6.60;99.90
6903;DHT22;20232;49.408;8.702;2023-01-15T18:35:17;6.70;99.90
6903;DHT22;20232;49.408;8.702;2023-01-15T18:37:43;6.70;99.90
6903;DHT22;20232;49.408;8.702;2023-01-15T18:40:09;6.70;99.90
6903;DHT22;20232;49.408;8.702;2023-01-15T18:42:37;6.80;99.90
6903;DHT22;20232;49.408;8.702;2023-01-15T18:45:22;6.80;99.90
6903;DHT22;20232;49.408;8.702;2023-01-15T18:48:06;6.70;99.90
6903;DHT22;20232;49.408;8.702;2023-01-15T18:50:31;6.70;99.90
6903;DHT22;20232;49.408;8.702;2023-01-15T18:52:57;6.70;99.90
6903;DHT22;20232;49.408;8.702;2023-01-15T18:55:23;6.70;99.90
6903;DHT22;20232;49.408;8.702;2023-01-15T18:57:50;6.80;99.90
6903;DHT22;20232;49.408;8.702;2023-01-15T19:00:17;6.80;99.90
6903;DHT22;20232;49.408;8.702;2023-01-15T19:02:43;6.80;99.90
6903;DHT22;20232;49.408;8.702;2023-01-15T19:05:09;6.80;99.90
6903;DHT22;20232;49.408;8.702;2023-01-15T19:07:37;6.80;99.90
6903;DHT22;20232;49.408;8.702;2023-01-15T19:10:04;6.80;99.90
6903;DHT22;20232;49.408;8.702;2023-01-15T19:12:30;6.80;99.90
6903;DHT22;20232;49.408;8.702;2023-01-15T19:14:56;6.90;99.90
6903;DHT22;20232;49.408;8.702;2023-01-15T19:17:40;6.80;99.90
6903;DHT22;20232;49.408;8.702;2023-01-15T19:20:24;6.80;99.90
6903;DHT22;20232;49.408;8.702;2023-01-15T19:22:50;6.90;99.90
6903;DHT22;20232;49.408;8.702;2023-01-15T19:25:30;6.90;99.90
6903;DHT22;20232;49.408;8.702;2023-01-15T19:27:56;6.80;99.90
6903;DHT22;20232;49.408;8.702;2023-01-15T19:30:23;6.80;99.90
6903;DHT22;20232;49.408;8.702;2023-01-15T19:32:49;6.80;99.90
6903;DHT22;20232;49.408;8.702;2023-01-15T19:35:15;6.80;99.90
6903;DHT22;20232;49.408;8.702;2023-01-15T19:37:41;6.80;99.90
6903;DHT22;20232;49.408;8.702;2023-01-15T19:40:12;6.80;99.90
6903;DHT22;20232;49.408;8.702;2023-01-15T19:42:45;6.80;99.90
6903;DHT22;20232;49.408;8.702;2023-01-15T19:45:30;6.80;99.90
6903;DHT22;20232;49.408;8.702;2023-01-15T19:48:14;6.80;99.90
6903;DHT22;20232;49.408;8.702;2023-01-15T19:51:00;6.80;99.90
6903;DHT22;20232;49.408;8.702;2023-01-15T19:53:26;6.80;99.90
6903;DHT22;20232;49.408;8.702;2023-01-15T19:55:51;6.80;99.90
6903;DHT22;20232;49.408;8.702;2023-01-15T19:58:17;6.80;99.90
6903;DHT22;20232;49.408;8.702;2023-01-15T20:00:45;6.80;99.90
6903;DHT22;20232;49.408;8.702;2023-01-15T20:03:13;6.80;99.90
6903;DHT22;20232;49.408;8.702;2023-01-15T20:05:41;6.80;99.90
6903;DHT22;20232;49.408;8.702;2023-01-15T20:08:07;6.80;99.90
6903;DHT22;20232;49.408;8.702;2023-01-15T20:10:39;6.70;99.90
6903;DHT22;20232;49.408;8.702;2023-01-15T20:13:05;6.70;99.90
6903;DHT22;20232;49.408;8.702;2023-01-15T20:15:49;6.60;99.90
6903;DHT22;20232;49.408;8.702;2023-01-15T20:18:15;6.70;99.90
6903;DHT22;20232;49.408;8.702;2023-01-15T20:20:41;6.70;99.90
6903;DHT22;20232;49.408;8.702;2023-01-15T20:23:07;6.70;99.90
6903;DHT22;20232;49.408;8.702;2023-01-15T20:25:33;6.60;99.90
6903;DHT22;20232;49.408;8.702;2023-01-15T20:27:59;6.60;99.90
6903;DHT22;20232;49.408;8.702;2023-01-15T20:30:25;6.60;99.90
6903;DHT22;20232;49.408;8.702;2023-01-15T20:32:53;6.60;99.90
6903;DHT22;20232;49.408;8.702;2023-01-15T20:35:21;6.60;99.90
6903;DHT22;20232;49.408;8.702;2023-01-15T20:37:48;6.60;99.90
6903;DHT22;20232;49.408;8.702;2023-01-15T20:40:16;6.60;99.90
6903;DHT22;20232;49.408;8.702;2023-01-15T20:42:42;6.60;99.90
6903;DHT22;20232;49.408;8.702;2023-01-15T20:45:27;6.60;99.90
6903;DHT22;20232;49.408;8.702;2023-01-15T20:47:53;6.60;99.90
6903;DHT22;20232;49.408;8.702;2023-01-15T20:50:44;6.60;99.90
6903;DHT22;20232;49.408;8.702;2023-01-15T20:53:25;6.60;99.90
6903;DHT22;20232;49.408;8.702;2023-01-15T20:55:51;6.50;99.90
6903;DHT22;20232;49.408;8.702;2023-01-15T20:58:17;6.50;99.90
6903;DHT22;20232;49.408;8.702;2023-01-15T21:00:42;6.50;99.90
6903;DHT22;20232;49.408;8.702;2023-01-15T21:03:09;6.50;99.90
6903;DHT22;20232;49.408;8.702;2023-01-15T21:05:35;6.50;99.90
6903;DHT22;20232;49.408;8.702;2023-01-15T21:08:00;6.50;99.90
6903;DHT22;20232;49.408;8.702;2023-01-15T21:10:26;6.60;99.90
6903;DHT22;20232;49.408;8.702;2023-01-15T21:12:52;6.50;99.90
6903;DHT22;20232;49.408;8.702;2023-01-15T21:15:18;6.50;99.90
6903;DHT22;20232;49.408;8.702;2023-01-15T21:17:45;6.50;99.90
6903;DHT22;20232;49.408;8.702;2023-01-15T21:20:13;6.50;99.90
6903;DHT22;20232;49.408;8.702;2023-01-15T21:22:39;6.50;99.90
6903;DHT22;20232;49.408;8.702;2023-01-15T21:25:06;6.50;99.90
6903;DHT22;20232;49.408;8.702;2023-01-15T21:27:35;6.60;99.90
6903;DHT22;20232;49.408;8.702;2023-01-15T21:30:01;6.60;99.90
6903;DHT22;20232;49.408;8.702;2023-01-15T21:32:26;6.60;99.90
6903;DHT22;20232;49.408;8.702;2023-01-15T21:34:52;6.60;99.90
6903;DHT22;20232;49.408;8.702;2023-01-15T21:37:18;6.60;99.90
6903;DHT22;20232;49.408;8.702;2023-01-15T21:39:43;6.40;99.90
6903;DHT22;20232;49.408;8.702;2023-01-15T21:42:15;6.30;99.90
6903;DHT22;20232;49.408;8.702;2023-01-15T21:44:59;6.20;99.90
6903;DHT22;20232;49.408;8.702;2023-01-15T21:47:25;6.10;99.90
6903;DHT22;20232;49.408;8.702;2023-01-15T21:49:52;6.10;99.90
6903;DHT22;20232;49.408;8.702;2023-01-15T21:52:18;6.10;99.90
6903;DHT22;20232;49.408;8.702;2023-01-15T21:54:44;6.10;99.90
6903;DHT22;20232;49.408;8.702;2023-01-15T21:57:09;6.10;99.90
6903;DHT22;20232;49.408;8.702;2023-01-15T21:59:35;6.00;99.90
6903;DHT22;20232;49.408;8.702;2023-01-15T22:02:02;6.00;99.90
6903;DHT22;20232;49.408;8.702;2023-01-15T22:04:29;6.00;99.90
6903;DHT22;20232;49.408;8.702;2023-01-15T22:06:57;6.10;99.90
6903;DHT22;20232;49.408;8.702;2023-01-15T22:09:23;6.10;99.90
6903;DHT22;20232;49.408;8.702;2023-01-15T22:11:49;6.20;99.90
6903;DHT22;20232;49.408;8.702;2023-01-15T22:14:17;6.20;99.90
6903;DHT22;20232;49.408;8.702;2023-01-15T22:19:57;6.30;99.90
6903;DHT22;20232;49.408;8.702;2023-01-15T22:22:22;6.30;99.90
6903;DHT22;20232;49.408;8.702;2023-01-15T22:24:54;6.30;99.90
6903;DHT22;20232;49.408;8.702;2023-01-15T22:27:20;6.30;99.90
6903;DHT22;20232;49.408;8.702;2023-01-15T22:29:45;6.30;99.90
6903;DHT22;20232;49.408;8.702;2023-01-15T22:32:13;6.40;99.90
6903;DHT22;20232;49.408;8.702;2023-01-15T22:34:41;6.40;99.90
6903;DHT22;20232;49.408;8.702;2023-01-15T22:37:06;6.40;99.90
6903;DHT22;20232;49.408;8.702;2023-01-15T22:39:33;6.40;99.90
6903;DHT22;20232;49.408;8.702;2023-01-15T22:41:58;6.40;99.90
6903;DHT22;20232;49.408;8.702;2023-01-15T22:44:43;6.40;99.90
6903;DHT22;20232;49.408;8.702;2023-01-15T22:47:10;6.40;99.90
6903;DHT22;20232;49.408;8.702;2023-01-15T22:49:36;6.40;99.90
6903;DHT22;20232;49.408;8.702;2023-01-15T22:52:01;6.40;99.90
6903;DHT22;20232;49.408;8.702;2023-01-15T22:54:27;6.40;99.90
6903;DHT22;20232;49.408;8.702;2023-01-15T22:56:53;6.40;99.90
6903;DHT22;20232;49.408;8.702;2023-01-15T22:59:18;6.50;99.90
6903;DHT22;20232;49.408;8.702;2023-01-15T23:01:44;6.50;99.90
6903;DHT22;20232;49.408;8.702;2023-01-15T23:06:38;6.40;99.90
6903;DHT22;20232;49.408;8.702;2023-01-15T23:09:03;6.40;99.90
6903;DHT22;20232;49.408;8.702;2023-01-15T23:11:29;6.50;99.90
6903;DHT22;20232;49.408;8.702;2023-01-15T23:13:55;6.40;99.90
6903;DHT22;20232;49.408;8.702;2023-01-15T23:16:22;6.50;99.90
6903;DHT22;20232;49.408;8.702;2023-01-15T23:18:48;6.50;99.90
6903;DHT22;20232;49.408;8.702;2023-01-15T23:21:17;6.50;99.90
6903;DHT22;20232;49.408;8.702;2023-01-15T23:23:43;6.50;99.90
6903;DHT22;20232;49.408;8.702;2023-01-15T23:26:18;6.50;99.90
6903;DHT22;20232;49.408;8.702;2023-01-15T23:28:47;6.50;99.90
6903;DHT22;20232;49.408;8.702;2023-01-15T23:31:12;6.50;99.90
6903;DHT22;20232;49.408;8.702;2023-01-15T23:33:38;6.50;99.90
6903;DHT22;20232;49.408;8.702;2023-01-15T23:36:04;6.50;99.90
6903;DHT22;20232;49.408;8.702;2023-01-15T23:38:34;6.50;99.90
6903;DHT22;20232;49.408;8.702;2023-01-15T23:41:09;6.50;99.90
6903;DHT22;20232;49.408;8.702;2023-01-15T23:43:34;6.50;99.90
6903;DHT22;20232;49.408;8.702;2023-01-15T23:46:19;6.50;99.90
6903;DHT22;20232;49.408;8.702;2023-01-15T23:48:57;6.50;99.90
6903;DHT22;20232;49.408;8.702;2023-01-15T23:51:23;6.50;99.90
6903;DHT22;20232;49.408;8.702;2023-01-15T23:53:48;6.50;99.90
6903;DHT22;20232;49.408;8.702;2023-01-15T23:56:16;6.50;99.90
6903;DHT22;20232;49.408;8.702;2023-01-15T23:58:42;6.60;99.90
